Flight Track Log - Related Links

Times and Time Zones

All times are in EDT time to prevent confusion due to time zone crossing. See the GLA61C flight status page for this flight to view local times or setup timezone preferences in your user account.


Time Position Orientation Groundspeed Altitude Reporting Facility
EDT Latitude Longitude Course Direction KTS MPH feet Rate Location/Type
Fri 07:59:24 AM 37.3408 -108.5942 48° Northeast 149 171 8,700  Level Denver Center
Fri 08:00:24 AM 37.3800 -108.5586 36° Northeast 153 176 11,000 2,150 Climbing Denver Center
Fri 08:01:00 AM 37.5331 -108.2980 46° Northeast  Level FlightAware Approximate
Fri 08:01:24 AM 37.4100 -108.5122 51° Northeast 164 189 13,000  Level Denver Center
Fri 08:02:00 AM 37.5813 -108.2359 46° Northeast  Level FlightAware Approximate
Fri 08:02:25 AM 37.4469 -108.4714 41° Northeast 176 203 14,600  Level Denver Center
Fri 08:03:00 AM 37.6279 -108.1718 48° Northeast  Level FlightAware Approximate
Fri 08:03:25 AM 37.4856 -108.4278 42° Northeast 187 215 16,200  Level Denver Center
Fri 08:04:00 AM 37.6744 -108.1076 48° Northeast  Level FlightAware Approximate
Fri 08:04:25 AM 37.5258 -108.3675 50° Northeast 195 224 17,900  Level Denver Center
Fri 08:05:26 AM 37.5633 -108.3147 48° Northeast 204 235 18,900 1,041 Climbing Denver Center
Fri 08:06:26 AM 37.5978 -108.2592 52° Northeast 209 241 20,000 1,140 Climbing Denver Center
Fri 08:07:27 AM 37.6414 -108.1914 51° Northeast 218 251 21,200 1,091 Climbing Denver Center
Fri 08:08:27 AM 37.6789 -108.1372 49° Northeast 217 250 22,200 850 Climbing Denver Center
Fri 08:09:27 AM 37.7178 -108.0869 46° Northeast 211 243 22,900 793 Climbing Denver Center
Fri 08:10:28 AM 37.7611 -108.0186 51° Northeast 219 252 23,800 793 Climbing Denver Center
Fri 08:11:28 AM 37.7986 -107.9678 47° Northeast 210 242 24,500 595 Climbing Denver Center
Fri 08:12:29 AM 37.8364 -107.9125 49° Northeast 215 247 25,000 248 Climbing Denver Center
Fri 08:13:29 AM 37.8739 -107.8514 52° Northeast 225 259 25,000  Level Denver Center
Fri 08:14:30 AM 37.9178 -107.7786 53° Northeast 232 267 25,000  Level Denver Center
Fri 08:15:31 AM 37.9594 -107.7211 47° Northeast 232 267 25,000  Level Denver Center
Fri 08:16:31 AM 38.0039 -107.6689 43° Northeast 230 265 25,000  Level Denver Center
Fri 08:17:32 AM 38.0561 -107.6067 43° Northeast 230 265 25,000  Level Denver Center
Fri 08:18:32 AM 38.0958 -107.5514 48° Northeast 232 267 25,000  Level Denver Center
Fri 08:19:33 AM 38.1456 -107.4781 49° Northeast 243 280 25,000  Level Denver Center
Fri 08:20:33 AM 38.1875 -107.4172 49° Northeast 242 278 25,000  Level Denver Center
Fri 08:21:34 AM 38.2317 -107.3586 46° Northeast 241 277 25,000  Level Denver Center
Fri 08:22:35 AM 38.2831 -107.2875 47° Northeast 244 281 25,000  Level Denver Center
Fri 08:23:35 AM 38.3233 -107.2239 51° Northeast 241 277 25,000  Level Denver Center
Fri 08:24:36 AM 38.3661 -107.1528 52° Northeast 244 281 25,000  Level Denver Center
Fri 08:25:37 AM 38.4161 -107.0961 42° Northeast 240 276 25,000  Level Denver Center
Fri 08:26:38 AM 38.4561 -107.0283 53° Northeast 240 276 25,000  Level Denver Center
Fri 08:27:38 AM 38.4803 -106.9406 71° East 258 297 25,000  Level Denver Center
Fri 08:28:39 AM 38.5114 -106.8597 64° Northeast 255 293 25,000  Level Denver Center
Fri 08:29:40 AM 38.5406 -106.7758 66° East 253 291 25,000  Level Denver Center
Fri 08:30:41 AM 38.5625 -106.6914 72° East 256 295 25,000  Level Denver Center
Fri 08:31:41 AM 38.5881 -106.6056 69° East 259 298 25,000  Level Denver Center
Fri 08:32:42 AM 38.6147 -106.5228 68° East 254 292 25,000  Level Denver Center
Fri 08:33:43 AM 38.6383 -106.4364 71° East 258 297 25,000  Level Denver Center
Fri 08:34:44 AM 38.6642 -106.3500 69° East 260 299 25,000  Level Denver Center
Fri 08:35:45 AM 38.6917 -106.2667 67° East 255 293 25,000 45 Level Denver Center
Fri 08:36:57 AM 38.7200 -106.1833 66° East 256 295 25,100  Climbing Denver Center
Fri 08:37:59 AM 38.7636 -106.0753 63° Northeast 252 290 25,000 -98 Descending Denver Center
Fri 08:38:59 AM 38.7989 -105.9983 60° Northeast 257 296 24,900  Descending Denver Center
Fri 08:40:00 AM 38.8361 -105.9286 56° Northeast 250 288 25,000 -246 Climbing Denver Center
Fri 08:41:01 AM 38.8853 -105.8519 51° Northeast 248 285 24,400 -806 Descending Denver Center
Fri 08:42:14 AM 38.9386 -105.7794 47° Northeast 249 287 23,200 -1,075 Descending Denver Center
Fri 08:43:15 AM 38.9911 -105.7008 49° Northeast 258 297 22,000 -1,082 Descending Denver Center
Fri 08:44:16 AM 39.0322 -105.6283 54° Northeast 262 302 21,000 -984 Descending Denver Center
Fri 08:45:17 AM 39.0736 -105.5536 54° Northeast 266 306 20,000 -1,180 Descending Denver Center
Fri 08:46:18 AM 39.1206 -105.4789 51° Northeast 257 296 18,600 -1,475 Descending Denver Center
Fri 08:47:19 AM 39.1719 -105.4131 45° Northeast 255 293 17,000 -1,388 Descending Denver Center
Fri 08:48:19 AM 39.2194 -105.3431 49° Northeast 258 297 15,800 -1,240 Descending Denver Center
Fri 08:49:20 AM 39.2747 -105.2719 45° Northeast 260 299 14,500 -885 Descending Denver Center
Fri 08:50:21 AM 39.3228 -105.2022 48° Northeast 261 300 14,000 -246 Descending Denver Center
Fri 08:51:22 AM 39.3706 -105.1372 46° Northeast 251 289 14,000 -295 Level Denver Center
Fri 08:52:23 AM 39.4228 -105.0725 44° Northeast 263 303 13,400 -492 Descending Denver Center
Fri 08:53:24 AM 39.4817 -105.0081 40° Northeast 275 316 13,000 -197 Descending Denver Center
Fri 08:54:25 AM 39.5450 -104.9425 39° Northeast 270 311 13,000  Level Denver Center
Fri 08:55:26 AM 39.6069 -104.8872 35° Northeast 270 311 13,000  Level Denver Center
Fri 08:56:26 AM 39.6667 -104.8300 36° Northeast 272 313 13,000 -248 Level Denver Center
Fri 08:57:27 AM 39.7211 -104.7617 44° Northeast 274 315 12,500 -738 Descending Denver Center
Fri 08:58:28 AM 39.7617 -104.6814 57° Northeast 287 330 11,500 -738 Descending Denver Center
Fri 08:59:29 AM 39.7569 -104.5894 94° East 222 255 11,000 -492 Descending Denver Center
Fri 09:00:30 AM 39.7631 -104.5181 84° East 201 231 10,500 -934 Descending Denver Center
Fri 09:01:31 AM 39.8017 -104.4703 44° Northeast 193 222 9,100 -1,328 Descending Denver Center
Fri 09:02:32 AM 39.8525 -104.4589 10° North 189 217 7,800 -1,034 Descending Denver Center
Fri 09:03:27 AM 39.8833 -104.5000 314° West 164 189 7,100 -826 Descending Denver TRACON
Fri 09:04:21 AM 39.8833 -104.5667 270° West 159 183 6,300 -842 Descending Denver TRACON
Fri 09:05:21 AM 39.8833 -104.6167 270° West 134 154 5,500 -448 Descending Denver TRACON
Fri 09:06:35 AM 39.8775 -104.6489 257° West 115 132 5,300 -162 Descending Denver Center
Fri 09:08:00 AM 39.8617 -104.6732 327° Northwest  Level Estimated
Fri 09:15:00 AM 39.8617 -104.6732 327° Northwest  Level Estimated
Fri 09:16:00 AM 39.8617 -104.6732 327° Northwest  Level Estimated

Login

Don't have an account? Register now (free) for customized features, flight alerts, and more!